createdAt,value
2022-09-26T00:01:36.540Z,100.00
2022-09-26T00:04:07.994Z,100.00
2022-09-26T00:06:36.384Z,100.00
2022-09-26T00:09:06.527Z,100.00
2022-09-26T00:11:35.869Z,100.00
2022-09-26T00:14:07.478Z,100.00
2022-09-26T00:16:36.641Z,100.00
2022-09-26T00:19:05.222Z,100.00
2022-09-26T00:21:34.118Z,100.00
2022-09-26T00:24:04.240Z,100.00
2022-09-26T00:26:35.954Z,100.00
2022-09-26T00:29:07.469Z,100.00
2022-09-26T00:31:37.939Z,100.00
2022-09-26T00:34:06.530Z,100.00
2022-09-26T00:36:38.339Z,100.00
2022-09-26T00:39:08.599Z,100.00
2022-09-26T00:41:38.764Z,100.00
2022-09-26T00:44:36.444Z,100.00
2022-09-26T00:47:06.371Z,100.00
2022-09-26T00:49:37.293Z,100.00
2022-09-26T00:52:10.144Z,100.00
2022-09-26T00:54:42.042Z,100.00
2022-09-26T00:57:17.096Z,100.00
2022-09-26T00:59:50.429Z,100.00
2022-09-26T01:02:19.037Z,100.00
2022-09-26T01:04:49.376Z,100.00
2022-09-26T01:07:22.102Z,100.00
2022-09-26T01:09:50.548Z,100.00
2022-09-26T01:12:22.249Z,100.00
2022-09-26T01:14:53.092Z,100.00
2022-09-26T01:17:22.754Z,100.00
2022-09-26T01:20:04.251Z,100.00
2022-09-26T01:23:11.148Z,95.71
2022-09-26T01:26:10.667Z,95.91
2022-09-26T01:28:59.124Z,98.17
2022-09-26T01:31:38.688Z,100.00
2022-09-26T01:34:14.271Z,100.00
2022-09-26T01:37:00.287Z,100.00
2022-09-26T01:39:36.248Z,100.00
2022-09-26T01:42:15.787Z,100.00
2022-09-26T01:44:50.390Z,100.00
2022-09-26T01:47:27.712Z,100.00
2022-09-26T01:50:00.239Z,99.98
2022-09-26T01:52:38.236Z,97.04
2022-09-26T01:55:12.412Z,93.10
2022-09-26T01:57:44.073Z,92.44
2022-09-26T02:00:13.735Z,90.61
2022-09-26T02:02:45.353Z,88.72
2022-09-26T02:05:19.895Z,86.69
2022-09-26T02:07:53.946Z,85.12
2022-09-26T02:10:27.698Z,83.19
2022-09-26T02:13:04.273Z,82.44
2022-09-26T02:15:36.050Z,82.49
2022-09-26T02:18:14.079Z,81.17
2022-09-26T02:20:49.709Z,81.00
2022-09-26T02:23:18.175Z,79.83
2022-09-26T02:25:46.367Z,78.72
2022-09-26T02:28:14.969Z,78.47
2022-09-26T02:30:45.807Z,77.28
2022-09-26T02:33:15.884Z,76.23
2022-09-26T02:35:57.509Z,74.58
2022-09-26T02:38:27.732Z,74.77
2022-09-26T02:41:01.580Z,73.72
2022-09-26T02:43:45.778Z,73.16
2022-09-26T02:46:39.854Z,71.56
2022-09-26T02:49:29.902Z,72.04
2022-09-26T02:52:16.997Z,72.87
2022-09-26T02:54:58.070Z,72.09
2022-09-26T02:57:36.846Z,71.56
2022-09-26T03:00:10.350Z,69.93
2022-09-26T03:02:44.251Z,70.11
2022-09-26T03:05:16.897Z,71.91
2022-09-26T03:07:48.349Z,72.82
2022-09-26T03:10:18.022Z,74.02
2022-09-26T03:12:46.588Z,75.57
2022-09-26T03:15:16.214Z,76.31
2022-09-26T03:17:48.646Z,76.70
2022-09-26T03:20:20.277Z,75.64
2022-09-26T03:22:48.903Z,77.61
2022-09-26T03:25:21.151Z,76.77
2022-09-26T03:27:50.088Z,77.63
2022-09-26T03:30:21.228Z,77.60
2022-09-26T03:32:49.705Z,77.12
2022-09-26T03:35:19.224Z,76.85
2022-09-26T03:37:47.942Z,78.84
2022-09-26T03:40:16.575Z,77.77
2022-09-26T03:42:46.456Z,76.18
2022-09-26T03:45:14.532Z,75.09
2022-09-26T03:47:43.071Z,75.10
2022-09-26T03:50:11.651Z,77.07
2022-09-26T03:52:41.166Z,78.44
2022-09-26T03:55:09.431Z,78.35
2022-09-26T03:57:38.031Z,78.05
2022-09-26T04:00:08.228Z,77.99
2022-09-26T04:02:36.484Z,77.36
2022-09-26T04:05:04.982Z,78.13
2022-09-26T04:07:33.398Z,77.55
2022-09-26T04:10:03.028Z,77.21
2022-09-26T04:12:31.210Z,77.82
2022-09-26T04:14:59.329Z,76.36
2022-09-26T04:17:27.416Z,75.55
2022-09-26T04:19:56.540Z,74.05
2022-09-26T04:22:25.297Z,74.93
2022-09-26T04:24:53.411Z,74.83
2022-09-26T04:27:22.988Z,73.16
2022-09-26T04:29:51.240Z,73.18
2022-09-26T04:32:19.804Z,72.42
2022-09-26T04:34:47.879Z,71.78
2022-09-26T04:37:16.008Z,71.48
2022-09-26T04:39:44.069Z,71.05
2022-09-26T04:42:12.157Z,70.07
2022-09-26T04:44:41.661Z,71.69
2022-09-26T04:47:11.398Z,73.47
2022-09-26T04:49:39.508Z,73.02
2022-09-26T04:52:07.647Z,74.72
2022-09-26T04:54:38.471Z,75.27
2022-09-26T04:57:06.797Z,74.89
2022-09-26T04:59:34.857Z,73.64
2022-09-26T05:02:08.625Z,72.38
2022-09-26T05:04:36.871Z,65.70
2022-09-26T05:07:05.064Z,60.78
2022-09-26T05:09:36.094Z,58.01
2022-09-26T05:12:04.763Z,56.21
2022-09-26T05:14:35.471Z,50.99
2022-09-26T05:17:06.501Z,48.89
2022-09-26T05:19:34.917Z,43.79
2022-09-26T05:22:03.049Z,45.96
2022-09-26T05:24:48.476Z,45.01
2022-09-26T05:27:18.723Z,43.67
2022-09-26T05:29:46.812Z,42.50
2022-09-26T05:32:18.149Z,41.23
2022-09-26T05:34:49.039Z,41.73
2022-09-26T05:37:17.189Z,42.19
2022-09-26T05:40:02.864Z,42.50
2022-09-26T05:42:31.148Z,42.70
2022-09-26T05:45:03.312Z,42.05
2022-09-26T05:47:36.403Z,42.49
2022-09-26T05:50:05.156Z,41.45
2022-09-26T05:52:33.303Z,39.40
2022-09-26T05:55:01.608Z,37.40
2022-09-26T05:57:29.696Z,36.43
2022-09-26T05:59:58.164Z,35.91
2022-09-26T06:02:26.429Z,35.78
2022-09-26T06:04:56.549Z,35.86
2022-09-26T06:07:24.757Z,35.83
2022-09-26T06:09:52.906Z,36.68
2022-09-26T06:12:21.342Z,36.73
2022-09-26T06:14:49.492Z,36.06
2022-09-26T06:17:17.581Z,36.70
2022-09-26T06:19:45.708Z,38.18
2022-09-26T06:22:15.266Z,37.39
2022-09-26T06:24:43.561Z,37.00
2022-09-26T06:27:11.638Z,36.62
2022-09-26T06:29:39.731Z,35.44
2022-09-26T06:32:07.944Z,36.90
2022-09-26T06:34:36.166Z,36.47
2022-09-26T06:37:04.330Z,37.54
2022-09-26T06:39:37.093Z,38.56
2022-09-26T06:42:07.520Z,42.01
2022-09-26T06:44:35.970Z,41.23
2022-09-26T06:47:05.472Z,41.96
2022-09-26T06:49:35.039Z,42.31
2022-09-26T06:52:03.589Z,43.69
2022-09-26T06:54:33.579Z,43.90
2022-09-26T06:57:01.675Z,43.76
2022-09-26T06:59:29.966Z,43.69
2022-09-26T07:01:58.207Z,44.73
2022-09-26T07:04:27.595Z,48.74
2022-09-26T07:06:58.316Z,47.79
2022-09-26T07:09:26.940Z,47.34
2022-09-26T07:12:13.982Z,46.68
2022-09-26T07:14:43.222Z,46.65
2022-09-26T07:17:16.786Z,47.42
2022-09-26T07:19:46.793Z,43.47
2022-09-26T07:22:16.667Z,44.43
2022-09-26T07:24:50.358Z,44.25
2022-09-26T07:27:19.895Z,43.86
2022-09-26T07:29:49.016Z,43.32
2022-09-26T07:32:17.402Z,43.91
2022-09-26T07:34:45.620Z,43.11
2022-09-26T07:37:13.876Z,43.08
2022-09-26T07:39:41.949Z,42.34
2022-09-26T07:42:10.233Z,42.11
2022-09-26T07:45:17.408Z,41.94
2022-09-26T07:47:46.050Z,42.48
2022-09-26T07:50:15.226Z,41.42
2022-09-26T07:52:45.800Z,42.27
2022-09-26T07:55:16.512Z,44.11
2022-09-26T07:57:44.952Z,42.81
2022-09-26T08:00:18.906Z,43.44
2022-09-26T08:02:47.670Z,43.32
2022-09-26T08:05:20.108Z,44.31
2022-09-26T08:07:49.936Z,44.33
2022-09-26T08:10:21.275Z,43.79
2022-09-26T08:12:50.286Z,43.25
2022-09-26T08:15:20.424Z,42.28
2022-09-26T08:17:48.767Z,42.50
2022-09-26T08:20:17.143Z,42.28
2022-09-26T08:22:45.499Z,42.31
2022-09-26T08:25:13.585Z,43.72
2022-09-26T08:27:43.597Z,42.72
2022-09-26T08:30:12.406Z,42.95
2022-09-26T08:32:42.468Z,43.10
2022-09-26T08:35:15.140Z,44.13
2022-09-26T08:37:43.279Z,43.84
2022-09-26T08:40:12.358Z,43.70
2022-09-26T08:42:52.212Z,43.77
2022-09-26T08:45:48.126Z,45.31
2022-09-26T08:48:31.285Z,46.65
2022-09-26T08:51:06.375Z,46.53
2022-09-26T08:53:41.935Z,48.19
2022-09-26T08:56:21.479Z,48.29
2022-09-26T08:58:54.035Z,47.72
2022-09-26T09:01:29.258Z,48.80
2022-09-26T09:04:05.378Z,49.50
2022-09-26T09:06:34.730Z,49.87
2022-09-26T09:09:02.968Z,47.66
2022-09-26T09:11:58.355Z,49.46
2022-09-26T09:14:57.957Z,46.26
2022-09-26T09:17:40.495Z,46.26
2022-09-26T09:20:17.643Z,46.89
2022-09-26T09:23:00.717Z,45.70
2022-09-26T09:25:33.445Z,45.66
2022-09-26T09:28:15.451Z,44.74
2022-09-26T09:30:46.604Z,43.06
2022-09-26T09:33:20.145Z,44.25
2022-09-26T09:35:53.837Z,43.56
2022-09-26T09:38:24.798Z,43.75
2022-09-26T09:41:01.902Z,44.17
2022-09-26T09:43:35.975Z,42.10
2022-09-26T09:46:07.428Z,44.22
2022-09-26T09:48:35.649Z,44.71
2022-09-26T09:51:39.281Z,44.57
2022-09-26T09:54:25.332Z,46.03
2022-09-26T09:57:22.474Z,47.35
2022-09-26T10:00:10.166Z,47.54
2022-09-26T10:02:47.167Z,49.79
2022-09-26T10:05:25.934Z,53.14
2022-09-26T10:07:59.258Z,53.46
2022-09-26T10:10:35.934Z,53.17
2022-09-26T10:13:06.229Z,52.13
2022-09-26T10:15:36.967Z,53.99
2022-09-26T10:18:23.978Z,51.64
2022-09-26T10:20:55.499Z,52.24
2022-09-26T10:23:31.547Z,52.20
2022-09-26T10:26:03.745Z,52.67
2022-09-26T10:28:37.904Z,52.53
2022-09-26T10:31:10.040Z,52.78
2022-09-26T10:33:45.192Z,53.32
2022-09-26T10:36:23.080Z,54.87
2022-09-26T10:39:15.080Z,54.24
2022-09-26T10:41:45.364Z,54.30
2022-09-26T10:44:25.175Z,52.05
2022-09-26T10:46:58.089Z,48.21
2022-09-26T10:49:32.320Z,47.67
2022-09-26T10:52:08.432Z,48.33
2022-09-26T10:54:45.754Z,47.95
2022-09-26T10:57:28.329Z,48.38
2022-09-26T10:59:59.513Z,48.48
2022-09-26T11:02:29.446Z,48.48
2022-09-26T11:05:19.793Z,49.83
2022-09-26T11:07:49.649Z,51.98
2022-09-26T11:10:25.818Z,52.19
2022-09-26T11:13:00.014Z,53.52
2022-09-26T11:15:29.952Z,53.59
2022-09-26T11:17:58.981Z,53.48
2022-09-26T11:20:46.799Z,53.57
2022-09-26T11:23:27.386Z,52.91
2022-09-26T11:26:03.838Z,56.94
2022-09-26T11:28:38.356Z,57.78
2022-09-26T11:31:17.746Z,58.25
2022-09-26T11:33:46.071Z,59.03
2022-09-26T11:36:36.102Z,60.20
2022-09-26T11:39:16.387Z,59.89
2022-09-26T11:41:58.713Z,59.24
2022-09-26T11:44:47.081Z,60.76
2022-09-26T11:47:43.623Z,56.62
2022-09-26T11:50:30.359Z,57.65
2022-09-26T11:53:15.266Z,57.89
2022-09-26T11:56:02.464Z,56.67
2022-09-26T11:58:43.571Z,52.78
2022-09-26T12:01:27.460Z,51.70
2022-09-26T12:04:16.008Z,51.66
2022-09-26T12:06:55.324Z,50.22
2022-09-26T12:09:41.561Z,49.22
2022-09-26T12:12:18.974Z,48.75
2022-09-26T12:15:03.391Z,47.99
2022-09-26T12:17:48.295Z,48.75
2022-09-26T12:20:27.962Z,48.44
2022-09-26T12:23:01.517Z,48.34
2022-09-26T12:25:38.874Z,48.44
2022-09-26T12:28:20.391Z,48.77
2022-09-26T12:31:00.621Z,48.32
2022-09-26T12:33:47.435Z,47.84
2022-09-26T12:36:25.173Z,48.25
2022-09-26T12:39:10.109Z,48.42
2022-09-26T12:42:16.486Z,49.64
2022-09-26T12:45:01.006Z,51.36
2022-09-26T12:47:49.007Z,53.44
2022-09-26T12:50:24.991Z,57.72
2022-09-26T12:53:19.390Z,60.08
2022-09-26T12:56:01.663Z,64.36
2022-09-26T12:58:50.049Z,65.20
2022-09-26T13:01:38.384Z,67.57
2022-09-26T13:04:32.041Z,67.95
2022-09-26T13:07:19.251Z,68.90
2022-09-26T13:10:22.081Z,70.10
2022-09-26T13:13:24.847Z,71.42
2022-09-26T13:16:08.184Z,72.10
2022-09-26T13:18:45.103Z,72.84
2022-09-26T13:21:19.874Z,72.60
2022-09-26T13:23:55.856Z,73.54
2022-09-26T13:26:29.602Z,73.69
2022-09-26T13:29:17.133Z,72.70
2022-09-26T13:31:49.268Z,71.83
2022-09-26T13:34:22.820Z,71.37
2022-09-26T13:36:53.546Z,71.42
2022-09-26T13:39:31.346Z,70.99
2022-09-26T13:42:08.161Z,70.91
2022-09-26T13:44:53.363Z,71.67
2022-09-26T13:47:34.629Z,72.11
2022-09-26T13:50:18.633Z,73.42
2022-09-26T13:53:00.920Z,73.41
2022-09-26T13:55:30.089Z,73.70
2022-09-26T13:58:08.124Z,73.39
2022-09-26T14:00:49.138Z,72.79
2022-09-26T14:03:42.750Z,73.80
2022-09-26T14:06:30.946Z,74.40
2022-09-26T14:09:24.250Z,74.51
2022-09-26T14:12:35.163Z,74.94
2022-09-26T14:15:28.466Z,74.41
2022-09-26T14:18:18.911Z,75.03
2022-09-26T14:21:04.448Z,76.34
2022-09-26T14:23:39.157Z,76.53
2022-09-26T14:26:10.450Z,76.03
2022-09-26T14:28:39.690Z,76.42
2022-09-26T14:31:42.966Z,77.94
2022-09-26T14:34:22.977Z,78.39
2022-09-26T14:36:53.388Z,78.74
2022-09-26T14:39:33.525Z,78.96
2022-09-26T14:42:10.699Z,78.71
2022-09-26T14:44:40.711Z,79.99
2022-09-26T14:47:17.427Z,80.25
2022-09-26T14:49:55.653Z,80.25
2022-09-26T14:52:25.699Z,80.60
2022-09-26T14:55:01.344Z,80.49
2022-09-26T14:57:32.143Z,81.67
2022-09-26T15:00:02.162Z,82.86
2022-09-26T15:02:39.493Z,83.52
2022-09-26T15:05:24.233Z,83.55
2022-09-26T15:07:54.610Z,81.11
2022-09-26T15:10:38.615Z,79.13
2022-09-26T15:13:19.722Z,75.71
2022-09-26T15:15:53.848Z,75.59
2022-09-26T15:18:34.784Z,76.09
2022-09-26T15:21:11.577Z,77.89
2022-09-26T15:23:49.693Z,80.00
2022-09-26T15:26:22.196Z,80.59
2022-09-26T15:28:52.092Z,82.16
2022-09-26T15:31:26.628Z,82.51
2022-09-26T15:34:01.653Z,83.52
2022-09-26T15:36:35.495Z,82.04
2022-09-26T15:39:27.078Z,82.58
2022-09-26T15:42:12.746Z,81.62
2022-09-26T15:44:48.179Z,83.81
2022-09-26T15:47:40.347Z,84.31
2022-09-26T15:50:14.470Z,85.35
2022-09-26T15:52:51.683Z,85.98
2022-09-26T15:55:23.893Z,86.83
2022-09-26T15:57:54.577Z,87.32
2022-09-26T16:00:22.794Z,88.10
2022-09-26T16:02:51.252Z,88.93
2022-09-26T16:05:23.160Z,89.50
2022-09-26T16:07:53.330Z,90.11
2022-09-26T16:10:25.065Z,90.42
2022-09-26T16:12:53.672Z,91.00
2022-09-26T16:15:27.808Z,90.30
2022-09-26T16:17:57.570Z,91.08
2022-09-26T16:20:29.700Z,91.49
2022-09-26T16:23:04.104Z,91.52
2022-09-26T16:25:36.189Z,88.94
2022-09-26T16:28:23.463Z,88.64
2022-09-26T16:31:14.535Z,88.57
2022-09-26T16:33:42.761Z,86.48
2022-09-26T16:36:20.442Z,85.89
2022-09-26T16:38:54.083Z,84.59
2022-09-26T16:42:00.098Z,85.00
2022-09-26T16:44:28.809Z,86.16
2022-09-26T16:47:03.271Z,87.35
2022-09-26T16:49:40.098Z,88.10
2022-09-26T16:52:34.456Z,89.13
2022-09-26T16:55:04.034Z,89.90
2022-09-26T16:57:34.415Z,90.29
2022-09-26T17:00:23.259Z,91.28
2022-09-26T17:02:51.544Z,92.34
2022-09-26T17:05:20.982Z,91.68
2022-09-26T17:07:51.336Z,91.70
2022-09-26T17:10:21.348Z,92.37
2022-09-26T17:12:50.699Z,91.67
2022-09-26T17:15:23.051Z,91.20
2022-09-26T17:17:53.804Z,90.48
2022-09-26T17:20:23.733Z,89.83
2022-09-26T17:22:54.789Z,89.94
2022-09-26T17:25:25.578Z,90.05
2022-09-26T17:27:57.821Z,90.36
2022-09-26T17:30:26.201Z,90.81
2022-09-26T17:32:55.372Z,90.10
2022-09-26T17:35:27.140Z,91.03
2022-09-26T17:37:57.173Z,91.93
2022-09-26T17:40:27.715Z,92.44
2022-09-26T17:42:57.943Z,92.29
2022-09-26T17:45:30.179Z,92.67
2022-09-26T17:48:00.611Z,92.65
2022-09-26T17:50:31.480Z,92.06
2022-09-26T17:53:03.295Z,91.11
2022-09-26T17:55:32.224Z,90.61
2022-09-26T17:58:00.476Z,91.03
2022-09-26T18:00:35.252Z,92.46
2022-09-26T18:03:05.069Z,93.49
2022-09-26T18:05:35.861Z,94.50
2022-09-26T18:08:13.348Z,95.54
2022-09-26T18:10:49.377Z,96.31
2022-09-26T18:13:25.580Z,97.17
2022-09-26T18:15:55.282Z,98.27
2022-09-26T18:18:27.846Z,99.54
2022-09-26T18:20:59.131Z,100.00
2022-09-26T18:23:31.498Z,100.00
2022-09-26T18:26:01.341Z,100.00
2022-09-26T18:28:30.513Z,100.00
2022-09-26T18:31:01.228Z,100.00
2022-09-26T18:33:37.133Z,100.00
2022-09-26T18:36:06.739Z,100.00
2022-09-26T18:38:36.886Z,100.00
2022-09-26T18:41:07.356Z,100.00
2022-09-26T18:43:42.431Z,100.00
2022-09-26T18:46:15.561Z,100.00
2022-09-26T18:48:45.234Z,100.00
2022-09-26T18:51:14.803Z,100.00
2022-09-26T18:53:45.181Z,100.00
2022-09-26T18:56:30.977Z,100.00
2022-09-26T18:58:59.981Z,100.00
2022-09-26T19:01:31.831Z,99.15
2022-09-26T19:04:02.751Z,92.40
2022-09-26T19:06:34.577Z,92.27
2022-09-26T19:09:08.080Z,91.83
2022-09-26T19:11:37.243Z,88.08
2022-09-26T19:14:14.210Z,83.81
2022-09-26T19:16:43.189Z,81.73
2022-09-26T19:19:11.666Z,80.89
2022-09-26T19:21:42.590Z,81.26
2022-09-26T19:24:20.693Z,79.53
2022-09-26T19:26:51.543Z,77.22
2022-09-26T19:29:28.851Z,74.26
2022-09-26T19:31:57.188Z,73.06
2022-09-26T19:34:28.210Z,71.90
2022-09-26T19:37:01.371Z,71.27
2022-09-26T19:39:31.835Z,69.23
2022-09-26T19:42:00.006Z,68.98
2022-09-26T19:44:28.249Z,68.66
2022-09-26T19:46:56.464Z,67.87
2022-09-26T19:49:29.013Z,67.26
2022-09-26T19:51:57.195Z,66.22
2022-09-26T19:54:25.441Z,65.96
2022-09-26T19:56:55.039Z,66.58
2022-09-26T19:59:27.312Z,66.81
2022-09-26T20:01:56.252Z,67.11
2022-09-26T20:04:24.663Z,68.14
2022-09-26T20:06:52.963Z,71.13
2022-09-26T20:09:21.583Z,71.78
2022-09-26T20:11:49.805Z,74.37
2022-09-26T20:14:25.382Z,75.33
2022-09-26T20:16:56.557Z,76.35
2022-09-26T20:19:41.141Z,76.43
2022-09-26T20:22:15.858Z,76.73
2022-09-26T20:24:44.520Z,76.83
2022-09-26T20:27:18.986Z,77.37
2022-09-26T20:30:07.345Z,77.49
2022-09-26T20:32:36.308Z,79.69
2022-09-26T20:35:05.430Z,80.10
2022-09-26T20:37:37.139Z,80.47
2022-09-26T20:40:12.503Z,80.51
2022-09-26T20:42:45.247Z,79.72
2022-09-26T20:45:19.521Z,81.71
2022-09-26T20:47:48.163Z,81.06
2022-09-26T20:50:18.855Z,81.31
2022-09-26T20:52:47.026Z,81.38
2022-09-26T20:55:16.722Z,80.98
2022-09-26T20:57:45.476Z,82.08
2022-09-26T21:00:17.912Z,82.49
2022-09-26T21:02:48.064Z,81.78
2022-09-26T21:05:18.822Z,82.70
2022-09-26T21:07:47.333Z,82.27
2022-09-26T21:10:23.356Z,81.79
2022-09-26T21:12:51.835Z,81.31
2022-09-26T21:15:22.351Z,78.05
2022-09-26T21:17:52.515Z,75.64
2022-09-26T21:20:25.218Z,74.18
2022-09-26T21:22:53.965Z,74.57
2022-09-26T21:25:24.965Z,75.57
2022-09-26T21:27:57.542Z,76.05
2022-09-26T21:30:27.189Z,76.28
2022-09-26T21:32:58.695Z,75.92
2022-09-26T21:35:30.498Z,76.15
2022-09-26T21:38:00.121Z,75.01
2022-09-26T21:40:33.698Z,76.58
2022-09-26T21:43:05.581Z,76.96
2022-09-26T21:45:35.124Z,77.89
2022-09-26T21:48:03.740Z,78.46
2022-09-26T21:50:32.934Z,78.72
2022-09-26T21:53:11.280Z,76.76
2022-09-26T21:55:44.966Z,79.15
2022-09-26T21:58:17.184Z,80.34
2022-09-26T22:00:46.783Z,80.32
2022-09-26T22:03:15.016Z,79.45
2022-09-26T22:05:43.175Z,79.18
2022-09-26T22:08:11.362Z,77.98
2022-09-26T22:10:39.708Z,78.02
2022-09-26T22:13:07.959Z,79.60
2022-09-26T22:15:36.105Z,80.76
2022-09-26T22:18:05.974Z,82.19
2022-09-26T22:20:35.413Z,83.38
2022-09-26T22:23:03.858Z,83.94
2022-09-26T22:25:32.790Z,84.49
2022-09-26T22:28:01.010Z,84.63
2022-09-26T22:30:29.360Z,84.95
2022-09-26T22:32:57.557Z,84.59
2022-09-26T22:35:27.211Z,84.31
2022-09-26T22:37:56.781Z,85.37
2022-09-26T22:40:24.967Z,84.97
2022-09-26T22:42:53.119Z,84.48
2022-09-26T22:45:21.285Z,84.99
2022-09-26T22:47:49.405Z,84.73
2022-09-26T22:50:17.669Z,85.06
2022-09-26T22:52:47.363Z,85.64
2022-09-26T22:55:15.626Z,86.08
2022-09-26T22:57:43.800Z,86.37
2022-09-26T23:00:13.382Z,86.25
2022-09-26T23:02:41.640Z,85.56
2022-09-26T23:05:10.526Z,83.79
2022-09-26T23:07:38.747Z,82.38
2022-09-26T23:10:10.388Z,82.70
2022-09-26T23:12:39.353Z,83.77
2022-09-26T23:15:09.560Z,83.94
2022-09-26T23:17:37.695Z,84.60
2022-09-26T23:20:06.985Z,83.12
2022-09-26T23:22:35.131Z,82.47
2022-09-26T23:25:03.253Z,79.16
2022-09-26T23:27:32.794Z,78.65
2022-09-26T23:30:01.112Z,77.49
2022-09-26T23:32:29.255Z,76.61
2022-09-26T23:34:57.432Z,75.64
2022-09-26T23:37:25.608Z,75.18
2022-09-26T23:39:53.840Z,75.25
2022-09-26T23:42:21.953Z,75.24
2022-09-26T23:44:51.480Z,74.35
2022-09-26T23:47:19.658Z,74.16
2022-09-26T23:49:47.807Z,74.52
2022-09-26T23:52:16.042Z,74.57
2022-09-26T23:54:44.335Z,75.34
2022-09-26T23:57:12.587Z,75.90
2022-09-26T23:59:40.845Z,76.95
